sensor_id;sensor_type;location;lat;lon;timestamp;temperature;humidity
16140;DHT22;8175;49.326;12.690;2023-09-08T06:54:34;13.70;99.90
16140;DHT22;8175;49.326;12.690;2023-09-08T06:57:00;13.80;99.90
16140;DHT22;8175;49.326;12.690;2023-09-08T06:59:25;14.00;99.90
16140;DHT22;8175;49.326;12.690;2023-09-08T07:01:51;14.20;99.90
16140;DHT22;8175;49.326;12.690;2023-09-08T07:04:17;14.40;99.90
16140;DHT22;8175;49.326;12.690;2023-09-08T07:06:42;14.60;99.90
16140;DHT22;8175;49.326;12.690;2023-09-08T07:09:09;14.90;99.90
16140;DHT22;8175;49.326;12.690;2023-09-08T07:11:34;15.10;99.90
16140;DHT22;8175;49.326;12.690;2023-09-08T07:14:00;15.10;99.90
16140;DHT22;8175;49.326;12.690;2023-09-08T07:16:25;15.10;99.90
16140;DHT22;8175;49.326;12.690;2023-09-08T07:18:51;15.20;99.90
16140;DHT22;8175;49.326;12.690;2023-09-08T07:21:17;15.30;99.90
16140;DHT22;8175;49.326;12.690;2023-09-08T07:23:42;15.40;99.90
16140;DHT22;8175;49.326;12.690;2023-09-08T07:26:08;15.50;99.90
16140;DHT22;8175;49.326;12.690;2023-09-08T07:28:34;15.60;99.90
16140;DHT22;8175;49.326;12.690;2023-09-08T07:31:04;15.80;99.90
16140;DHT22;8175;49.326;12.690;2023-09-08T07:33:30;15.90;99.90
16140;DHT22;8175;49.326;12.690;2023-09-08T07:35:55;16.20;99.90
16140;DHT22;8175;49.326;12.690;2023-09-08T07:38:21;16.50;99.90
16140;DHT22;8175;49.326;12.690;2023-09-08T07:40:46;16.90;99.90
16140;DHT22;8175;49.326;12.690;2023-09-08T07:43:12;17.40;99.90
16140;DHT22;8175;49.326;12.690;2023-09-08T07:45:38;17.60;99.90
16140;DHT22;8175;49.326;12.690;2023-09-08T07:48:06;18.20;99.90
16140;DHT22;8175;49.326;12.690;2023-09-08T07:50:31;19.90;99.90
16140;DHT22;8175;49.326;12.690;2023-09-08T07:52:57;21.60;99.90
16140;DHT22;8175;49.326;12.690;2023-09-08T07:55:23;23.10;99.90
16140;DHT22;8175;49.326;12.690;2023-09-08T07:57:52;24.50;99.90
16140;DHT22;8175;49.326;12.690;2023-09-08T08:00:18;25.60;99.90
16140;DHT22;8175;49.326;12.690;2023-09-08T08:02:53;26.30;99.90
16140;DHT22;8175;49.326;12.690;2023-09-08T08:05:19;27.10;99.90
16140;DHT22;8175;49.326;12.690;2023-09-08T08:07:45;27.90;98.10
16140;DHT22;8175;49.326;12.690;2023-09-08T08:10:12;28.30;96.90
16140;DHT22;8175;49.326;12.690;2023-09-08T08:12:41;28.70;95.40
16140;DHT22;8175;49.326;12.690;2023-09-08T08:15:08;29.20;92.20
16140;DHT22;8175;49.326;12.690;2023-09-08T08:17:36;29.30;88.60
16140;DHT22;8175;49.326;12.690;2023-09-08T08:20:03;29.10;86.40
16140;DHT22;8175;49.326;12.690;2023-09-08T08:22:33;29.40;82.10
16140;DHT22;8175;49.326;12.690;2023-09-08T08:24:59;28.30;82.10
16140;DHT22;8175;49.326;12.690;2023-09-08T08:27:25;26.70;90.00
16140;DHT22;8175;49.326;12.690;2023-09-08T08:29:51;25.30;94.50
16140;DHT22;8175;49.326;12.690;2023-09-08T08:32:17;24.20;99.90
16140;DHT22;8175;49.326;12.690;2023-09-08T08:34:43;23.60;99.90
16140;DHT22;8175;49.326;12.690;2023-09-08T08:37:09;23.50;99.90
16140;DHT22;8175;49.326;12.690;2023-09-08T08:39:35;23.30;99.90
16140;DHT22;8175;49.326;12.690;2023-09-08T08:42:07;23.50;99.90
16140;DHT22;8175;49.326;12.690;2023-09-08T08:44:33;24.20;99.90
16140;DHT22;8175;49.326;12.690;2023-09-08T08:47:02;24.50;99.90
16140;DHT22;8175;49.326;12.690;2023-09-08T08:49:29;24.20;99.90
16140;DHT22;8175;49.326;12.690;2023-09-08T08:51:56;24.40;99.80
16140;DHT22;8175;49.326;12.690;2023-09-08T08:54:23;25.10;98.10
16140;DHT22;8175;49.326;12.690;2023-09-08T08:56:49;25.10;96.70
16140;DHT22;8175;49.326;12.690;2023-09-08T08:59:15;25.30;99.90
16140;DHT22;8175;49.326;12.690;2023-09-08T09:01:42;24.60;99.90
16140;DHT22;8175;49.326;12.690;2023-09-08T09:04:08;23.90;99.90
16140;DHT22;8175;49.326;12.690;2023-09-08T09:06:35;23.30;99.90
16140;DHT22;8175;49.326;12.690;2023-09-08T09:09:02;23.00;99.90
16140;DHT22;8175;49.326;12.690;2023-09-08T09:11:29;22.80;99.90
16140;DHT22;8175;49.326;12.690;2023-09-08T09:13:57;22.60;99.90
16140;DHT22;8175;49.326;12.690;2023-09-08T09:16:24;22.60;99.90
16140;DHT22;8175;49.326;12.690;2023-09-08T09:18:59;22.70;99.90
16140;DHT22;8175;49.326;12.690;2023-09-08T09:21:44;23.40;99.90
16140;DHT22;8175;49.326;12.690;2023-09-08T09:24:32;24.80;99.90
16140;DHT22;8175;49.326;12.690;2023-09-08T09:27:03;26.10;99.90
16140;DHT22;8175;49.326;12.690;2023-09-08T09:29:31;27.50;99.90
16140;DHT22;8175;49.326;12.690;2023-09-08T09:32:01;28.80;96.40
16140;DHT22;8175;49.326;12.690;2023-09-08T09:34:28;29.80;94.00
16140;DHT22;8175;49.326;12.690;2023-09-08T09:36:53;30.60;85.50
16140;DHT22;8175;49.326;12.690;2023-09-08T09:39:23;30.70;74.00
16140;DHT22;8175;49.326;12.690;2023-09-08T09:41:53;31.10;74.30
16140;DHT22;8175;49.326;12.690;2023-09-08T09:44:19;30.80;68.90
16140;DHT22;8175;49.326;12.690;2023-09-08T09:46:46;31.50;62.70
16140;DHT22;8175;49.326;12.690;2023-09-08T09:49:15;31.60;60.80
16140;DHT22;8175;49.326;12.690;2023-09-08T09:51:47;31.60;60.40
16140;DHT22;8175;49.326;12.690;2023-09-08T09:54:14;31.60;63.50
16140;DHT22;8175;49.326;12.690;2023-09-08T09:56:40;31.60;57.80
16140;DHT22;8175;49.326;12.690;2023-09-08T09:59:11;32.00;57.50
16140;DHT22;8175;49.326;12.690;2023-09-08T10:01:38;32.40;58.90
16140;DHT22;8175;49.326;12.690;2023-09-08T10:04:05;33.70;52.80
16140;DHT22;8175;49.326;12.690;2023-09-08T10:06:33;33.50;52.60
16140;DHT22;8175;49.326;12.690;2023-09-08T10:09:00;33.30;52.90
16140;DHT22;8175;49.326;12.690;2023-09-08T10:11:43;33.50;48.90
16140;DHT22;8175;49.326;12.690;2023-09-08T10:14:10;33.50;47.90
16140;DHT22;8175;49.326;12.690;2023-09-08T10:16:38;33.00;49.20
16140;DHT22;8175;49.326;12.690;2023-09-08T10:19:08;32.50;47.90
16140;DHT22;8175;49.326;12.690;2023-09-08T10:21:39;33.00;50.00
16140;DHT22;8175;49.326;12.690;2023-09-08T10:24:24;32.60;49.50
16140;DHT22;8175;49.326;12.690;2023-09-08T10:27:08;33.10;49.20
16140;DHT22;8175;49.326;12.690;2023-09-08T10:29:38;33.30;48.50
16140;DHT22;8175;49.326;12.690;2023-09-08T10:32:06;33.50;47.60
16140;DHT22;8175;49.326;12.690;2023-09-08T10:34:33;33.90;45.80
16140;DHT22;8175;49.326;12.690;2023-09-08T10:37:00;33.70;46.90
16140;DHT22;8175;49.326;12.690;2023-09-08T10:39:35;33.00;48.20
16140;DHT22;8175;49.326;12.690;2023-09-08T10:47:22;35.10;43.90
16140;DHT22;8175;49.326;12.690;2023-09-08T10:49:48;34.50;41.70
16140;DHT22;8175;49.326;12.690;2023-09-08T10:52:16;33.80;43.30
16140;DHT22;8175;49.326;12.690;2023-09-08T10:57:13;35.00;39.80
16140;DHT22;8175;49.326;12.690;2023-09-08T11:02:42;35.60;43.30
16140;DHT22;8175;49.326;12.690;2023-09-08T11:05:09;34.50;40.90
16140;DHT22;8175;49.326;12.690;2023-09-08T11:07:39;34.40;45.60
16140;DHT22;8175;49.326;12.690;2023-09-08T11:10:06;34.80;41.30
16140;DHT22;8175;49.326;12.690;2023-09-08T11:12:33;34.20;46.00
16140;DHT22;8175;49.326;12.690;2023-09-08T11:15:01;34.30;45.50
16140;DHT22;8175;49.326;12.690;2023-09-08T11:17:30;34.20;46.90
16140;DHT22;8175;49.326;12.690;2023-09-08T11:19:55;33.50;47.40
16140;DHT22;8175;49.326;12.690;2023-09-08T11:22:23;34.20;44.60
16140;DHT22;8175;49.326;12.690;2023-09-08T11:24:53;34.80;42.90
16140;DHT22;8175;49.326;12.690;2023-09-08T11:27:20;34.40;44.30
16140;DHT22;8175;49.326;12.690;2023-09-08T11:29:46;34.20;48.10
16140;DHT22;8175;49.326;12.690;2023-09-08T11:32:13;34.80;45.50
16140;DHT22;8175;49.326;12.690;2023-09-08T11:34:38;35.10;45.00
16140;DHT22;8175;49.326;12.690;2023-09-08T11:37:13;33.70;46.50
16140;DHT22;8175;49.326;12.690;2023-09-08T11:39:40;34.60;45.70
16140;DHT22;8175;49.326;12.690;2023-09-08T11:42:08;34.60;46.30
16140;DHT22;8175;49.326;12.690;2023-09-08T11:44:34;35.00;47.20
16140;DHT22;8175;49.326;12.690;2023-09-08T11:47:04;34.10;48.00
16140;DHT22;8175;49.326;12.690;2023-09-08T11:49:40;32.90;47.80
16140;DHT22;8175;49.326;12.690;2023-09-08T11:52:06;33.20;49.60
16140;DHT22;8175;49.326;12.690;2023-09-08T11:54:34;34.00;47.00
16140;DHT22;8175;49.326;12.690;2023-09-08T11:57:01;34.50;46.20
16140;DHT22;8175;49.326;12.690;2023-09-08T11:59:28;35.50;43.70
16140;DHT22;8175;49.326;12.690;2023-09-08T12:01:56;35.50;43.80
16140;DHT22;8175;49.326;12.690;2023-09-08T12:04:22;35.00;45.30
16140;DHT22;8175;49.326;12.690;2023-09-08T12:06:51;34.20;45.40
16140;DHT22;8175;49.326;12.690;2023-09-08T12:09:17;34.40;45.90
16140;DHT22;8175;49.326;12.690;2023-09-08T12:11:44;34.30;46.10
16140;DHT22;8175;49.326;12.690;2023-09-08T12:14:12;34.50;46.90
16140;DHT22;8175;49.326;12.690;2023-09-08T12:16:38;34.30;47.20
16140;DHT22;8175;49.326;12.690;2023-09-08T12:19:04;34.10;45.70
16140;DHT22;8175;49.326;12.690;2023-09-08T12:21:31;33.80;46.70
16140;DHT22;8175;49.326;12.690;2023-09-08T12:23:58;33.80;48.10
16140;DHT22;8175;49.326;12.690;2023-09-08T12:26:27;33.50;47.80
16140;DHT22;8175;49.326;12.690;2023-09-08T12:28:53;33.90;47.20
16140;DHT22;8175;49.326;12.690;2023-09-08T12:31:19;34.30;48.90
16140;DHT22;8175;49.326;12.690;2023-09-08T12:33:44;34.50;45.60
16140;DHT22;8175;49.326;12.690;2023-09-08T12:36:15;34.70;44.90
16140;DHT22;8175;49.326;12.690;2023-09-08T12:38:41;35.10;48.90
16140;DHT22;8175;49.326;12.690;2023-09-08T12:41:07;35.60;48.20
16140;DHT22;8175;49.326;12.690;2023-09-08T12:43:33;36.10;46.60
16140;DHT22;8175;49.326;12.690;2023-09-08T12:46:00;36.50;46.10
16140;DHT22;8175;49.326;12.690;2023-09-08T12:48:25;36.10;41.50
16140;DHT22;8175;49.326;12.690;2023-09-08T12:50:51;33.80;44.10
16140;DHT22;8175;49.326;12.690;2023-09-08T12:53:17;34.30;50.20
16140;DHT22;8175;49.326;12.690;2023-09-08T12:55:43;34.30;45.10
16140;DHT22;8175;49.326;12.690;2023-09-08T12:58:09;31.60;48.00
16140;DHT22;8175;49.326;12.690;2023-09-08T13:00:34;31.40;48.70
16140;DHT22;8175;49.326;12.690;2023-09-08T13:03:01;33.10;45.30
16140;DHT22;8175;49.326;12.690;2023-09-08T13:05:27;33.10;44.40
16140;DHT22;8175;49.326;12.690;2023-09-08T13:07:53;32.30;47.30
16140;DHT22;8175;49.326;12.690;2023-09-08T13:10:19;32.50;49.60
16140;DHT22;8175;49.326;12.690;2023-09-08T13:12:45;33.40;47.50
16140;DHT22;8175;49.326;12.690;2023-09-08T13:15:11;33.30;46.00
16140;DHT22;8175;49.326;12.690;2023-09-08T13:17:37;33.20;46.10
16140;DHT22;8175;49.326;12.690;2023-09-08T13:20:03;33.20;47.80
16140;DHT22;8175;49.326;12.690;2023-09-08T13:22:29;32.60;49.30
16140;DHT22;8175;49.326;12.690;2023-09-08T13:24:54;33.80;45.20
16140;DHT22;8175;49.326;12.690;2023-09-08T13:27:20;34.00;45.60
16140;DHT22;8175;49.326;12.690;2023-09-08T13:29:46;32.80;48.40
16140;DHT22;8175;49.326;12.690;2023-09-08T13:32:12;33.80;45.80
16140;DHT22;8175;49.326;12.690;2023-09-08T13:34:37;34.40;47.10
16140;DHT22;8175;49.326;12.690;2023-09-08T13:37:04;34.40;47.90
16140;DHT22;8175;49.326;12.690;2023-09-08T13:39:30;34.50;47.50
16140;DHT22;8175;49.326;12.690;2023-09-08T13:41:59;34.00;48.40
16140;DHT22;8175;49.326;12.690;2023-09-08T13:44:25;33.00;50.90
16140;DHT22;8175;49.326;12.690;2023-09-08T13:46:52;32.60;48.60
16140;DHT22;8175;49.326;12.690;2023-09-08T13:49:19;32.70;48.10
16140;DHT22;8175;49.326;12.690;2023-09-08T13:51:45;32.40;51.60
16140;DHT22;8175;49.326;12.690;2023-09-08T13:54:11;33.20;52.10
16140;DHT22;8175;49.326;12.690;2023-09-08T13:56:41;33.50;47.60
16140;DHT22;8175;49.326;12.690;2023-09-08T13:59:08;32.70;46.20
16140;DHT22;8175;49.326;12.690;2023-09-08T14:01:34;32.20;53.60
16140;DHT22;8175;49.326;12.690;2023-09-08T14:04:01;32.40;49.90
16140;DHT22;8175;49.326;12.690;2023-09-08T14:06:27;33.70;50.70
16140;DHT22;8175;49.326;12.690;2023-09-08T14:08:53;34.10;47.50
16140;DHT22;8175;49.326;12.690;2023-09-08T14:11:19;33.20;48.90
16140;DHT22;8175;49.326;12.690;2023-09-08T14:13:44;32.80;49.10
16140;DHT22;8175;49.326;12.690;2023-09-08T14:16:13;33.10;48.90
16140;DHT22;8175;49.326;12.690;2023-09-08T14:18:39;32.80;47.70
16140;DHT22;8175;49.326;12.690;2023-09-08T14:21:06;32.50;47.80
16140;DHT22;8175;49.326;12.690;2023-09-08T14:23:32;32.90;52.30
16140;DHT22;8175;49.326;12.690;2023-09-08T14:25:59;33.90;49.90
16140;DHT22;8175;49.326;12.690;2023-09-08T14:28:25;33.20;46.30
16140;DHT22;8175;49.326;12.690;2023-09-08T14:30:52;31.80;49.60
16140;DHT22;8175;49.326;12.690;2023-09-08T14:33:18;31.60;50.40
16140;DHT22;8175;49.326;12.690;2023-09-08T14:35:43;31.10;51.20
16140;DHT22;8175;49.326;12.690;2023-09-08T14:38:10;31.60;52.50
16140;DHT22;8175;49.326;12.690;2023-09-08T14:40:35;32.10;50.30
16140;DHT22;8175;49.326;12.690;2023-09-08T14:43:01;31.50;49.70
16140;DHT22;8175;49.326;12.690;2023-09-08T14:45:27;32.20;52.20
16140;DHT22;8175;49.326;12.690;2023-09-08T14:47:53;32.20;50.80
16140;DHT22;8175;49.326;12.690;2023-09-08T14:50:19;31.50;48.90
16140;DHT22;8175;49.326;12.690;2023-09-08T14:52:45;31.50;52.40
16140;DHT22;8175;49.326;12.690;2023-09-08T14:55:11;32.10;51.90
16140;DHT22;8175;49.326;12.690;2023-09-08T14:57:37;31.80;48.40
16140;DHT22;8175;49.326;12.690;2023-09-08T15:00:03;30.50;50.90
16140;DHT22;8175;49.326;12.690;2023-09-08T15:02:30;30.20;54.40
16140;DHT22;8175;49.326;12.690;2023-09-08T15:04:56;29.80;54.40
16140;DHT22;8175;49.326;12.690;2023-09-08T15:07:22;29.30;56.80
16140;DHT22;8175;49.326;12.690;2023-09-08T15:09:47;29.80;56.20
16140;DHT22;8175;49.326;12.690;2023-09-08T15:12:13;30.90;57.10
16140;DHT22;8175;49.326;12.690;2023-09-08T15:14:39;31.40;53.30
16140;DHT22;8175;49.326;12.690;2023-09-08T15:17:05;31.00;54.80
16140;DHT22;8175;49.326;12.690;2023-09-08T15:19:31;30.70;51.90
16140;DHT22;8175;49.326;12.690;2023-09-08T15:21:58;29.80;54.60
16140;DHT22;8175;49.326;12.690;2023-09-08T15:24:24;29.60;54.80
16140;DHT22;8175;49.326;12.690;2023-09-08T15:26:50;28.70;57.90
16140;DHT22;8175;49.326;12.690;2023-09-08T15:29:15;28.80;58.90
16140;DHT22;8175;49.326;12.690;2023-09-08T15:31:42;28.70;60.00
16140;DHT22;8175;49.326;12.690;2023-09-08T15:34:08;29.20;59.00
16140;DHT22;8175;49.326;12.690;2023-09-08T15:36:35;29.30;57.00
16140;DHT22;8175;49.326;12.690;2023-09-08T15:39:00;28.50;56.60
16140;DHT22;8175;49.326;12.690;2023-09-08T15:41:26;28.30;59.20
16140;DHT22;8175;49.326;12.690;2023-09-08T15:43:51;28.10;57.90
16140;DHT22;8175;49.326;12.690;2023-09-08T15:46:18;28.40;61.00
16140;DHT22;8175;49.326;12.690;2023-09-08T15:48:44;28.40;59.20
16140;DHT22;8175;49.326;12.690;2023-09-08T15:51:09;28.10;60.30
16140;DHT22;8175;49.326;12.690;2023-09-08T15:53:36;27.90;59.60
16140;DHT22;8175;49.326;12.690;2023-09-08T15:56:02;27.40;60.90
16140;DHT22;8175;49.326;12.690;2023-09-08T15:58:29;27.40;63.80
16140;DHT22;8175;49.326;12.690;2023-09-08T16:00:54;27.10;64.70
16140;DHT22;8175;49.326;12.690;2023-09-08T16:03:20;26.80;64.50
16140;DHT22;8175;49.326;12.690;2023-09-08T16:05:45;26.10;65.30
16140;DHT22;8175;49.326;12.690;2023-09-08T16:08:11;25.90;66.40
16140;DHT22;8175;49.326;12.690;2023-09-08T16:10:37;25.80;71.30
16140;DHT22;8175;49.326;12.690;2023-09-08T16:13:03;25.70;70.40
16140;DHT22;8175;49.326;12.690;2023-09-08T16:15:28;25.30;70.90
16140;DHT22;8175;49.326;12.690;2023-09-08T16:17:54;25.20;79.40
16140;DHT22;8175;49.326;12.690;2023-09-08T16:20:20;25.00;75.40
16140;DHT22;8175;49.326;12.690;2023-09-08T16:22:47;25.00;80.60
16140;DHT22;8175;49.326;12.690;2023-09-08T16:25:13;24.90;80.00
16140;DHT22;8175;49.326;12.690;2023-09-08T16:27:40;24.80;83.50
16140;DHT22;8175;49.326;12.690;2023-09-08T16:30:06;24.70;79.90
16140;DHT22;8175;49.326;12.690;2023-09-08T16:32:31;24.60;81.80
16140;DHT22;8175;49.326;12.690;2023-09-08T16:34:57;24.40;82.50
16140;DHT22;8175;49.326;12.690;2023-09-08T16:37:22;24.40;88.10
16140;DHT22;8175;49.326;12.690;2023-09-08T16:39:48;24.20;87.20
16140;DHT22;8175;49.326;12.690;2023-09-08T16:42:14;24.10;87.90
16140;DHT22;8175;49.326;12.690;2023-09-08T16:44:41;24.00;89.00
16140;DHT22;8175;49.326;12.690;2023-09-08T16:47:10;23.90;91.60
16140;DHT22;8175;49.326;12.690;2023-09-08T16:49:36;23.70;96.10
16140;DHT22;8175;49.326;12.690;2023-09-08T16:52:02;23.60;95.00
16140;DHT22;8175;49.326;12.690;2023-09-08T16:54:27;23.50;94.90
16140;DHT22;8175;49.326;12.690;2023-09-08T16:56:53;23.30;98.40
16140;DHT22;8175;49.326;12.690;2023-09-08T16:59:19;23.20;97.50
16140;DHT22;8175;49.326;12.690;2023-09-08T17:01:49;23.00;98.80
16140;DHT22;8175;49.326;12.690;2023-09-08T17:04:15;23.00;99.90
16140;DHT22;8175;49.326;12.690;2023-09-08T17:06:40;22.90;99.90
16140;DHT22;8175;49.326;12.690;2023-09-08T17:09:07;22.70;99.90
16140;DHT22;8175;49.326;12.690;2023-09-08T17:11:33;22.50;99.90
16140;DHT22;8175;49.326;12.690;2023-09-08T17:14:04;22.30;99.90
16140;DHT22;8175;49.326;12.690;2023-09-08T17:16:30;22.20;99.90
16140;DHT22;8175;49.326;12.690;2023-09-08T17:18:56;22.10;99.90
16140;DHT22;8175;49.326;12.690;2023-09-08T17:21:22;21.90;99.90
16140;DHT22;8175;49.326;12.690;2023-09-08T17:23:47;21.70;99.90
16140;DHT22;8175;49.326;12.690;2023-09-08T17:26:13;21.60;99.90
16140;DHT22;8175;49.326;12.690;2023-09-08T17:28:39;21.40;99.90
16140;DHT22;8175;49.326;12.690;2023-09-08T17:31:04;21.30;99.90
16140;DHT22;8175;49.326;12.690;2023-09-08T17:33:31;21.20;99.90
16140;DHT22;8175;49.326;12.690;2023-09-08T17:35:57;21.00;99.90
16140;DHT22;8175;49.326;12.690;2023-09-08T17:38:23;20.80;99.90
16140;DHT22;8175;49.326;12.690;2023-09-08T17:40:48;20.70;99.90
16140;DHT22;8175;49.326;12.690;2023-09-08T17:43:14;20.50;99.90
16140;DHT22;8175;49.326;12.690;2023-09-08T17:45:40;20.50;99.90
16140;DHT22;8175;49.326;12.690;2023-09-08T17:48:06;20.50;99.90
16140;DHT22;8175;49.326;12.690;2023-09-08T17:50:32;20.40;99.90
16140;DHT22;8175;49.326;12.690;2023-09-08T17:52:57;20.40;99.90
16140;DHT22;8175;49.326;12.690;2023-09-08T17:55:23;20.30;99.90
16140;DHT22;8175;49.326;12.690;2023-09-08T17:57:52;20.40;99.90
16140;DHT22;8175;49.326;12.690;2023-09-08T18:00:18;20.30;99.90
16140;DHT22;8175;49.326;12.690;2023-09-08T18:02:44;20.40;99.90
16140;DHT22;8175;49.326;12.690;2023-09-08T18:05:09;20.40;99.90
16140;DHT22;8175;49.326;12.690;2023-09-08T18:07:35;20.40;99.90
16140;DHT22;8175;49.326;12.690;2023-09-08T18:10:06;20.40;99.90
16140;DHT22;8175;49.326;12.690;2023-09-08T18:12:31;20.40;99.90
16140;DHT22;8175;49.326;12.690;2023-09-08T18:14:57;20.40;99.90
16140;DHT22;8175;49.326;12.690;2023-09-08T18:17:23;20.30;99.90
16140;DHT22;8175;49.326;12.690;2023-09-08T18:19:49;20.10;99.90
16140;DHT22;8175;49.326;12.690;2023-09-08T18:22:15;20.00;99.90
16140;DHT22;8175;49.326;12.690;2023-09-08T18:24:40;20.00;99.90
16140;DHT22;8175;49.326;12.690;2023-09-08T18:27:06;20.10;99.90
16140;DHT22;8175;49.326;12.690;2023-09-08T18:29:32;20.30;99.90
16140;DHT22;8175;49.326;12.690;2023-09-08T18:31:58;20.50;99.90
16140;DHT22;8175;49.326;12.690;2023-09-08T18:34:24;20.60;99.90
16140;DHT22;8175;49.326;12.690;2023-09-08T18:36:50;20.60;99.90
16140;DHT22;8175;49.326;12.690;2023-09-08T18:39:16;20.80;99.90
16140;DHT22;8175;49.326;12.690;2023-09-08T18:41:42;20.80;99.90
16140;DHT22;8175;49.326;12.690;2023-09-08T18:44:08;20.70;99.90
16140;DHT22;8175;49.326;12.690;2023-09-08T18:46:33;20.60;99.90
16140;DHT22;8175;49.326;12.690;2023-09-08T18:48:59;20.40;99.90
16140;DHT22;8175;49.326;12.690;2023-09-08T18:51:25;20.20;99.90
16140;DHT22;8175;49.326;12.690;2023-09-08T18:53:50;20.10;99.90
16140;DHT22;8175;49.326;12.690;2023-09-08T18:56:16;20.00;99.90
16140;DHT22;8175;49.326;12.690;2023-09-08T18:58:44;19.80;99.90
16140;DHT22;8175;49.326;12.690;2023-09-08T19:01:09;19.50;99.90
16140;DHT22;8175;49.326;12.690;2023-09-08T19:03:35;19.10;99.90
16140;DHT22;8175;49.326;12.690;2023-09-08T19:06:03;18.80;99.90
16140;DHT22;8175;49.326;12.690;2023-09-08T19:08:29;18.40;99.90
16140;DHT22;8175;49.326;12.690;2023-09-08T19:10:55;18.20;99.90
16140;DHT22;8175;49.326;12.690;2023-09-08T19:13:21;18.00;99.90
16140;DHT22;8175;49.326;12.690;2023-09-08T19:15:47;18.00;99.90
16140;DHT22;8175;49.326;12.690;2023-09-08T19:18:13;17.90;99.90
16140;DHT22;8175;49.326;12.690;2023-09-08T19:20:39;17.80;99.90
16140;DHT22;8175;49.326;12.690;2023-09-08T19:23:04;17.60;99.90
16140;DHT22;8175;49.326;12.690;2023-09-08T19:25:30;17.40;99.90
16140;DHT22;8175;49.326;12.690;2023-09-08T19:27:56;17.40;99.90
16140;DHT22;8175;49.326;12.690;2023-09-08T19:30:21;17.30;99.90
16140;DHT22;8175;49.326;12.690;2023-09-08T19:32:47;17.20;99.90
16140;DHT22;8175;49.326;12.690;2023-09-08T19:35:13;17.10;99.90
16140;DHT22;8175;49.326;12.690;2023-09-08T19:37:39;17.00;99.90
16140;DHT22;8175;49.326;12.690;2023-09-08T19:40:06;16.90;99.90
16140;DHT22;8175;49.326;12.690;2023-09-08T19:42:32;16.90;99.90
16140;DHT22;8175;49.326;12.690;2023-09-08T19:44:57;16.80;99.90
16140;DHT22;8175;49.326;12.690;2023-09-08T19:47:24;16.70;99.90
16140;DHT22;8175;49.326;12.690;2023-09-08T19:49:49;16.70;99.90
16140;DHT22;8175;49.326;12.690;2023-09-08T19:52:15;16.60;99.90
16140;DHT22;8175;49.326;12.690;2023-09-08T19:54:43;16.70;99.90
16140;DHT22;8175;49.326;12.690;2023-09-08T19:57:08;16.70;99.90
16140;DHT22;8175;49.326;12.690;2023-09-08T19:59:34;16.60;99.90
16140;DHT22;8175;49.326;12.690;2023-09-08T20:02:00;16.50;99.90
16140;DHT22;8175;49.326;12.690;2023-09-08T20:04:26;16.40;99.90
16140;DHT22;8175;49.326;12.690;2023-09-08T20:06:51;16.40;99.90
16140;DHT22;8175;49.326;12.690;2023-09-08T20:09:19;16.30;99.90
16140;DHT22;8175;49.326;12.690;2023-09-08T20:11:45;16.20;99.90
16140;DHT22;8175;49.326;12.690;2023-09-08T20:14:11;16.20;99.90
16140;DHT22;8175;49.326;12.690;2023-09-08T20:16:37;16.10;99.90
16140;DHT22;8175;49.326;12.690;2023-09-08T20:19:03;16.10;99.90
16140;DHT22;8175;49.326;12.690;2023-09-08T20:21:29;16.20;99.90
16140;DHT22;8175;49.326;12.690;2023-09-08T20:23:55;16.20;99.90
16140;DHT22;8175;49.326;12.690;2023-09-08T20:26:21;16.20;99.90
16140;DHT22;8175;49.326;12.690;2023-09-08T20:28:48;16.20;99.90
16140;DHT22;8175;49.326;12.690;2023-09-08T20:31:17;16.20;99.90
16140;DHT22;8175;49.326;12.690;2023-09-08T20:33:46;16.20;99.90
16140;DHT22;8175;49.326;12.690;2023-09-08T20:36:12;16.10;99.90
16140;DHT22;8175;49.326;12.690;2023-09-08T20:38:38;16.00;99.90
16140;DHT22;8175;49.326;12.690;2023-09-08T20:41:04;16.00;99.90
16140;DHT22;8175;49.326;12.690;2023-09-08T20:43:32;16.00;99.90
16140;DHT22;8175;49.326;12.690;2023-09-08T20:46:00;16.00;99.90
16140;DHT22;8175;49.326;12.690;2023-09-08T20:48:28;15.90;99.90
